Time;durP1;ratioP1;P1;durP2;ratioP2;P2;SDS_P1;SDS_P2;PMS_P1;PMS_P2;Temp;Humidity;BMP_temperature;BMP_pressure;BME280_temperature;BME280_humidity;BME280_pressure;Samples;Min_cycle;Max_cycle;Signal;HPM_P1;HPM_P2
2021/10/27 00:01:27;;;;;;;12.02;10.93;;;16.90;87.50;;;20.90;42.94;95503.44;6085069;19;20021;-73
2021/10/27 00:03:28;;;;;;;11.25;10.45;;;16.90;87.50;;;20.91;43.04;95504.22;6088865;19;20014;-74
2021/10/27 00:05:29;;;;;;;12.13;11.18;;;16.90;87.50;;;20.90;42.91;95502.63;6078760;19;20114;-72
2021/10/27 00:07:32;;;;;;;12.13;11.02;;;16.90;87.50;;;20.89;42.68;95507.25;6048400;19;20007;-71
2021/10/27 00:09:33;;;;;;;11.20;10.30;;;16.90;87.60;;;20.89;43.27;95496.41;6079081;19;20014;-74
2021/10/27 00:11:34;;;;;;;11.23;10.32;;;16.90;87.50;;;20.90;43.09;95508.03;6087486;19;20019;-74
2021/10/27 00:13:35;;;;;;;12.10;11.10;;;16.90;87.60;;;20.88;43.02;95507.56;6071646;19;20839;-72
2021/10/27 00:15:36;;;;;;;11.52;10.60;;;16.90;87.60;;;20.88;42.92;95504.84;6084675;19;20266;-72
2021/10/27 00:17:37;;;;;;;10.50;9.60;;;16.90;87.60;;;20.87;42.87;95504.03;6085965;19;20018;-74
2021/10/27 00:19:38;;;;;;;11.10;10.10;;;16.90;87.60;;;20.87;42.68;95505.94;6085076;19;20010;-74
2021/10/27 00:21:39;;;;;;;10.82;10.02;;;16.90;87.60;;;20.86;42.73;95499.72;6078664;19;20132;-73
2021/10/27 00:23:40;;;;;;;12.05;11.05;;;16.90;87.70;;;20.86;42.87;95499.72;6090270;19;20026;-73
2021/10/27 00:25:40;;;;;;;11.40;10.27;;;16.90;87.60;;;20.85;42.99;95500.84;6086847;19;22081;-70
2021/10/27 00:27:42;;;;;;;10.65;9.75;;;16.80;87.50;;;20.84;42.85;95504.66;6079175;19;20010;-73
2021/10/27 00:29:43;;;;;;;10.55;9.63;;;16.90;87.60;;;20.84;43.11;95504.66;6083478;19;20010;-71
2021/10/27 00:31:44;;;;;;;11.27;10.15;;;16.90;87.60;;;20.84;43.20;95499.22;6081414;19;20413;-73
2021/10/27 00:33:45;;;;;;;10.55;9.70;;;16.90;87.70;;;20.84;42.71;95499.22;6085041;19;20011;-73
2021/10/27 00:35:46;;;;;;;10.27;9.48;;;16.80;87.50;;;20.84;43.02;95498.44;6080658;19;20210;-71
2021/10/27 00:37:47;;;;;;;9.82;9.02;;;16.80;87.50;;;20.84;42.93;95499.22;6071572;19;20092;-65
2021/10/27 00:39:48;;;;;;;10.52;9.63;;;16.90;87.60;;;20.84;43.10;95496.53;6030386;19;20138;-65
2021/10/27 00:41:48;;;;;;;10.10;9.23;;;16.80;87.50;;;20.84;42.96;95498.44;6072912;19;20010;-65
2021/10/27 00:43:50;;;;;;;10.57;9.73;;;16.90;87.60;;;20.84;42.66;95501.16;6071033;19;20014;-66
2021/10/27 00:45:51;;;;;;;10.45;9.63;;;16.80;87.50;;;20.84;42.74;95501.16;6069716;19;20023;-66
2021/10/27 00:47:52;;;;;;;10.25;9.35;;;16.80;87.50;;;20.83;42.90;95496.84;6075876;19;20019;-65
2021/10/27 00:49:53;;;;;;;10.45;9.65;;;16.80;87.50;;;20.82;43.13;95500.66;6072211;19;20103;-65
2021/10/27 00:51:54;;;;;;;11.23;10.32;;;16.80;87.50;;;20.81;43.02;95502.56;6038106;19;20498;-65
2021/10/27 00:53:54;;;;;;;9.63;8.82;;;16.80;87.50;;;20.82;42.84;95501.44;6048198;19;20477;-65
2021/10/27 00:55:55;;;;;;;9.75;8.85;;;16.80;87.50;;;20.82;43.06;95504.16;6052858;19;20447;-65
2021/10/27 00:57:56;;;;;;;9.07;8.40;;;16.80;87.60;;;20.83;43.06;95507.66;6064686;19;20802;-66
2021/10/27 00:59:57;;;;;;;10.93;9.82;;;16.80;87.50;;;20.81;42.90;95499.84;6021847;19;20470;-65
2021/10/27 01:01:58;;;;;;;10.00;9.20;;;16.80;87.50;;;20.82;43.20;95501.44;6055102;19;20015;-64
2021/10/27 01:03:59;;;;;;;9.43;8.70;;;16.80;87.60;;;20.81;42.73;95505.25;6054477;19;20058;-63
2021/10/27 01:06:00;;;;;;;9.43;8.65;;;16.80;87.60;;;20.80;43.22;95503.63;6061025;19;20022;-64
2021/10/27 01:08:00;;;;;;;10.38;9.30;;;16.80;87.60;;;20.81;42.85;95499.84;6057003;19;20015;-63
2021/10/27 01:10:02;;;;;;;9.57;8.80;;;16.80;87.60;;;20.80;42.96;95509.06;6054671;19;20019;-65
2021/10/27 01:12:03;;;;;;;9.18;8.48;;;16.80;87.60;;;20.81;42.95;95504.44;6055857;19;20367;-66
2021/10/27 01:14:06;;;;;;;10.00;9.20;;;16.80;87.60;;;20.80;43.03;95498.22;6058136;19;20070;-67
2021/10/27 01:16:06;;;;;;;9.53;8.63;;;16.80;87.60;;;20.79;42.72;95501.22;6058450;19;20086;-66
2021/10/27 01:18:08;;;;;;;9.40;8.60;;;16.80;87.50;;;20.79;43.11;95499.31;6059607;19;20760;-66
2021/10/27 01:20:09;;;;;;;9.88;9.07;;;16.80;87.60;;;20.80;43.00;95502.84;6061653;19;20478;-65
2021/10/27 01:22:12;;;;;;;9.27;8.48;;;16.80;87.60;;;20.79;43.18;95496.59;6049052;19;20821;-66
2021/10/27 01:24:13;;;;;;;9.68;8.88;;;16.80;87.60;;;20.81;42.93;95493.59;6057367;19;20026;-65
2021/10/27 01:26:14;;;;;;;8.55;7.85;;;16.80;87.60;;;20.80;42.85;95486.56;6077046;19;20497;-63
2021/10/27 01:28:15;;;;;;;8.93;8.23;;;16.80;87.50;;;20.79;42.68;95493.91;6050404;19;20015;-64
2021/10/27 01:30:20;;;;;;;9.10;8.40;;;16.80;87.50;;;20.80;42.73;95492.78;6071686;19;20483;-63
2021/10/27 01:32:31;;;;;;;9.68;8.80;;;16.80;87.60;;;20.81;42.66;95488.19;6062630;19;20137;-64
2021/10/27 01:34:33;;;;;;;8.55;7.90;;;16.80;87.50;;;20.80;42.73;95487.38;6064719;19;20119;-64
2021/10/27 01:36:34;;;;;;;8.73;8.02;;;16.80;87.60;;;20.79;42.99;95488.47;6066269;19;20066;-63
2021/10/27 01:38:36;;;;;;;8.98;8.27;;;16.80;87.60;;;20.79;42.92;95485.78;6065966;19;21041;-64
2021/10/27 01:40:37;;;;;;;8.40;7.63;;;16.80;88.30;;;20.80;42.71;95486.56;6057389;19;20063;-64
2021/10/27 01:42:38;;;;;;;8.85;8.13;;;16.80;87.50;;;20.79;42.87;95485.78;6076476;19;20010;-64
2021/10/27 01:44:40;;;;;;;9.18;8.40;;;16.80;87.60;;;20.80;43.17;95494.69;6055060;19;20042;-64
2021/10/27 01:46:41;;;;;;;8.50;7.90;;;16.80;87.20;;;20.79;42.93;95485.78;6047098;19;20028;-63
2021/10/27 01:48:42;;;;;;;7.90;7.40;;;16.80;87.50;;;20.78;42.65;95476.03;6061588;19;20018;-64
2021/10/27 01:50:43;;;;;;;8.30;7.70;;;16.80;87.50;;;20.78;42.93;95481.47;6061725;19;20010;-63
2021/10/27 01:52:44;;;;;;;7.63;7.03;;;16.80;87.50;;;20.77;43.09;95485.28;6068996;19;20007;-63
2021/10/27 01:54:45;;;;;;;8.10;7.47;;;16.70;87.40;;;20.77;42.90;95481.75;6084239;19;20042;-65
2021/10/27 01:56:46;;;;;;;8.45;7.75;;;16.80;87.60;;;20.77;42.70;95487.19;6076490;19;20003;-65
2021/10/27 01:58:46;;;;;;;7.43;6.93;;;16.80;87.50;;;20.75;42.92;95482.06;6065947;19;20046;-65
2021/10/27 02:00:47;;;;;;;7.93;7.38;;;16.80;87.50;;;20.75;43.19;95490.19;6065097;19;20017;-66
2021/10/27 02:02:48;;;;;;;7.70;7.03;;;16.70;87.40;;;20.75;42.93;95486.69;6067989;19;20414;-65
2021/10/27 02:04:49;;;;;;;7.35;6.75;;;16.70;87.50;;;20.75;42.96;95492.09;6062348;19;20502;-65
2021/10/27 02:06:50;;;;;;;7.18;6.68;;;16.70;87.50;;;20.74;43.20;95494.00;6054595;19;20491;-66
2021/10/27 02:08:51;;;;;;;7.40;6.70;;;16.70;87.50;;;20.73;43.20;95495.13;6064404;19;20573;-65
2021/10/27 02:10:52;;;;;;;8.18;7.47;;;16.70;87.50;;;20.74;42.88;95495.94;6061746;19;20018;-65
2021/10/27 02:12:53;;;;;;;7.75;7.05;;;16.70;87.40;;;20.72;43.17;95496.22;6064828;19;20006;-66
2021/10/27 02:14:54;;;;;;;7.07;6.55;;;16.70;87.40;;;20.73;42.92;95492.41;6073641;19;20017;-65
2021/10/27 02:16:55;;;;;;;6.95;6.45;;;16.70;87.40;;;20.72;42.68;95490.81;6064860;19;20010;-65
2021/10/27 02:18:55;;;;;;;6.85;6.20;;;16.70;87.50;;;20.73;42.89;95491.63;6062821;19;20974;-65
2021/10/27 02:20:57;;;;;;;6.40;6.00;;;16.70;87.30;;;20.71;43.04;95500.03;6053216;19;20027;-65
2021/10/27 02:22:58;;;;;;;7.40;6.70;;;16.70;87.40;;;20.69;43.07;95488.72;6056321;19;20082;-64
2021/10/27 02:24:59;;;;;;;7.05;6.45;;;16.70;87.50;;;20.70;42.77;95493.03;6047977;19;20087;-64
2021/10/27 02:27:00;;;;;;;6.53;6.05;;;16.70;87.50;;;20.70;42.92;95490.31;6070256;19;20022;-65
2021/10/27 02:29:01;;;;;;;7.07;6.50;;;16.70;87.40;;;20.68;42.74;95495.25;6060043;19;20018;-65
2021/10/27 02:31:02;;;;;;;7.93;6.80;;;16.70;88.10;;;20.68;42.97;95486.31;6079351;19;20373;-65
2021/10/27 02:33:04;;;;;;;6.38;5.88;;;16.70;87.40;;;20.67;43.03;95490.13;6076297;19;20514;-65
2021/10/27 02:35:05;;;;;;;6.45;5.95;;;16.70;87.40;;;20.65;42.98;95485.81;6079091;19;20006;-65
2021/10/27 02:37:06;;;;;;;6.70;6.30;;;16.70;87.40;;;20.65;43.27;95490.44;6077499;19;20022;-66
2021/10/27 02:39:09;;;;;;;6.55;6.05;;;16.70;87.40;;;20.65;43.07;95495.84;6064161;19;20006;-66
2021/10/27 02:41:11;;;;;;;;;;;16.70;87.40;;;20.64;43.15;95496.97;6069339;19;20039;-65
2021/10/27 02:43:13;;;;;;;6.70;6.20;;;16.70;88.10;;;20.63;42.88;95492.66;6062594;19;20041;-65
2021/10/27 02:45:14;;;;;;;6.07;5.57;;;16.70;87.50;;;20.64;43.06;95491.53;6075292;19;20027;-65
2021/10/27 02:47:15;;;;;;;6.25;5.85;;;16.70;87.40;;;20.63;43.19;95489.94;6075740;19;20039;-65
2021/10/27 02:49:16;;;;;;;6.55;5.15;;;16.60;87.30;;;20.64;42.79;95491.53;6066649;19;20052;-66
2021/10/27 02:51:17;;;;;;;6.68;6.03;;;16.70;87.40;;;20.65;43.22;95490.44;6065175;19;20022;-66
2021/10/27 02:53:18;;;;;;;6.05;5.55;;;16.70;87.40;;;20.65;42.95;95493.13;6065738;19;20016;-65
2021/10/27 02:55:19;;;;;;;6.40;5.82;;;16.70;87.40;;;20.64;43.15;95486.91;6049299;19;20122;-66
2021/10/27 02:57:19;;;;;;;5.93;5.50;;;16.70;87.40;;;20.65;42.96;95491.22;6060338;19;20070;-66
2021/10/27 02:59:20;;;;;;;6.68;6.18;;;16.60;87.30;;;20.65;43.12;95488.53;6075084;19;20006;-65
2021/10/27 03:01:21;;;;;;;5.68;5.25;;;16.70;87.40;;;20.67;42.95;95492.84;6058643;19;21279;-65
2021/10/27 03:03:22;;;;;;;5.88;5.47;;;16.70;87.40;;;20.65;43.18;95495.84;6066900;19;20569;-65
2021/10/27 03:05:23;;;;;;;6.22;5.78;;;16.70;87.40;;;20.65;42.92;95493.13;6065037;19;20013;-65
2021/10/27 03:07:24;;;;;;;5.80;5.30;;;16.70;87.40;;;20.65;42.88;95491.22;6059203;19;20051;-65
2021/10/27 03:09:25;;;;;;;5.13;4.80;;;16.70;87.30;;;20.65;42.99;95485.00;6066525;19;20002;-65
2021/10/27 03:11:26;;;;;;;5.50;5.10;;;16.70;87.40;;;20.66;42.99;95494.75;6064402;19;20018;-65
2021/10/27 03:13:27;;;;;;;5.43;5.03;;;16.60;87.20;;;20.64;42.69;95486.13;6055203;19;20922;-65
2021/10/27 03:15:28;;;;;;;5.63;5.22;;;16.70;87.40;;;20.64;42.82;95492.34;6055788;19;20121;-65
2021/10/27 03:17:28;;;;;;;5.10;4.70;;;16.70;87.30;;;20.65;43.17;95495.84;6058486;19;20002;-65
2021/10/27 03:19:29;;;;;;;5.60;5.20;;;16.60;87.20;;;20.64;42.97;95494.25;6064767;19;20014;-66
2021/10/27 03:21:30;;;;;;;4.55;4.25;;;16.60;87.30;;;20.65;43.08;95493.13;6051285;19;20029;-65
2021/10/27 03:23:31;;;;;;;5.40;5.00;;;16.60;87.30;;;20.64;42.90;95494.25;6062096;19;20010;-66
2021/10/27 03:25:32;;;;;;;4.82;4.43;;;16.60;87.30;;;20.65;42.96;95490.44;6072217;19;20030;-65
2021/10/27 03:27:33;;;;;;;4.97;4.68;;;16.60;87.30;;;20.63;42.69;95492.66;6061408;19;20003;-65
2021/10/27 03:29:33;;;;;;;6.28;5.78;;;16.60;87.30;;;20.63;43.08;95503.47;6060968;19;20033;-65
2021/10/27 03:31:35;;;;;;;5.03;4.63;;;16.60;87.20;;;20.63;42.97;95500.78;6066781;19;20865;-66
2021/10/27 03:33:36;;;;;;;4.78;4.38;;;16.60;87.20;;;20.63;43.20;95500.78;6049376;19;20018;-65
2021/10/27 03:35:36;;;;;;;4.57;4.18;;;16.60;87.20;;;20.62;42.83;95502.69;6067402;19;20018;-66
2021/10/27 03:37:37;;;;;;;5.43;5.03;;;16.60;87.20;;;20.61;42.87;95490.25;6057947;19;20011;-65
2021/10/27 03:39:38;;;;;;;4.63;4.30;;;16.60;87.30;;;20.61;42.94;95501.06;6069334;19;20010;-65
2021/10/27 03:41:39;;;;;;;4.25;3.95;;;16.60;87.20;;;20.61;42.74;95505.69;6065997;19;20389;-66
2021/10/27 03:43:40;;;;;;;5.57;5.10;;;16.60;87.20;;;20.61;43.00;95497.56;6059148;19;20014;-66
2021/10/27 03:45:42;;;;;;;4.18;3.88;;;16.60;87.20;;;20.59;42.88;95507.91;6055204;19;20026;-65
2021/10/27 03:47:42;;;;;;;5.15;4.75;;;16.60;87.20;;;20.61;43.01;95502.97;6038144;19;20340;-69
2021/10/27 03:49:43;;;;;;;4.43;4.13;;;16.60;87.20;;;20.59;43.06;95510.63;6036967;19;20030;-68
2021/10/27 03:51:45;;;;;;;4.78;4.47;;;16.60;87.20;;;20.58;43.17;95507.09;6034246;19;20002;-66
2021/10/27 03:53:46;;;;;;;4.47;4.07;;;16.60;87.20;;;20.59;42.95;95510.63;6043226;19;20079;-71
2021/10/27 03:55:47;;;;;;;4.35;4.05;;;16.60;87.10;;;20.59;43.16;95510.63;6062481;19;20017;-69
2021/10/27 03:57:47;;;;;;;4.10;3.80;;;16.60;87.10;;;20.58;43.07;95511.72;6076962;19;20014;-70
2021/10/27 03:59:48;;;;;;;4.57;4.28;;;16.60;87.20;;;20.57;43.26;95513.63;6098970;19;20503;-70
2021/10/27 04:01:49;;;;;;;4.30;4.00;;;16.60;87.30;;;20.54;43.07;95516.94;6092841;19;20087;-69
2021/10/27 04:03:50;;;;;;;4.43;4.13;;;16.60;87.40;;;20.54;42.84;95516.13;6090238;19;20134;-72
2021/10/27 04:05:51;;;;;;;4.38;4.00;;;16.60;87.60;;;20.52;43.33;95516.44;6058767;19;20054;-66
2021/10/27 04:07:52;;;;;;;4.90;4.47;;;16.60;87.60;;;20.52;43.35;95511.03;6031188;19;20086;-66
2021/10/27 04:09:53;;;;;;;5.32;4.18;;;16.60;87.70;;;20.52;42.89;95513.72;6064724;19;20053;-67
2021/10/27 04:11:53;;;;;;;5.90;4.15;;;16.60;87.80;;;20.54;43.30;95513.44;6033520;19;20007;-65
2021/10/27 04:13:54;;;;;;;6.30;4.45;;;16.60;87.80;;;20.54;43.17;95518.84;6039238;19;20015;-65
2021/10/27 04:15:55;;;;;;;5.82;4.07;;;16.60;87.90;;;20.55;43.13;95517.75;6041140;19;20002;-67
2021/10/27 04:17:56;;;;;;;4.13;3.58;;;16.60;87.90;;;20.55;43.35;95523.16;6064773;19;20784;-65
2021/10/27 04:19:57;;;;;;;5.63;3.88;;;16.50;87.90;;;20.54;43.18;95521.56;6071648;19;20010;-65
2021/10/27 04:21:58;;;;;;;4.28;3.90;;;16.60;88.20;;;20.55;43.18;95526.66;6067086;19;20026;-65
2021/10/27 04:23:59;;;;;;;9.07;4.47;;;16.60;88.30;;;20.56;43.12;95530.19;6071239;19;20034;-66
2021/10/27 04:26:00;;;;;;;4.38;3.97;;;16.50;88.20;;;20.55;43.28;95525.88;6070166;19;20118;-66
2021/10/27 04:28:01;;;;;;;4.53;4.22;;;16.60;88.50;;;20.55;43.09;95529.38;6075751;19;20049;-65
2021/10/27 04:30:04;;;;;;;4.25;3.92;;;16.60;89.20;;;20.55;43.31;95521.25;6058232;19;20022;-65
2021/10/27 04:32:05;;;;;;;3.90;3.60;;;16.60;88.50;;;20.55;43.44;95523.16;6065927;19;20097;-66
2021/10/27 04:34:06;;;;;;;4.38;3.97;;;16.60;88.50;;;20.56;43.40;95522.84;6044973;19;20018;-65
2021/10/27 04:36:08;;;;;;;3.80;3.50;;;16.60;88.40;;;20.57;42.98;95531.78;6058090;19;20014;-62
2021/10/27 04:38:08;;;;;;;3.90;3.50;;;16.60;88.40;;;20.57;43.40;95529.88;6082201;19;20071;-62
2021/10/27 04:40:16;;;;;;;5.85;3.80;;;16.60;88.50;;;20.57;43.09;95531.78;6060900;19;20003;-62
2021/10/27 04:42:17;;;;;;;5.63;3.88;;;16.60;88.40;;;20.56;43.51;95533.69;6046974;19;20018;-63
2021/10/27 04:44:18;;;;;;;4.15;3.80;;;16.50;88.40;;;20.56;43.25;95524.75;6062725;19;20521;-63
2021/10/27 04:46:19;;;;;;;4.20;3.67;;;16.60;88.50;;;20.57;43.09;95531.78;6054138;19;20368;-64
2021/10/27 04:48:20;;;;;;;3.58;3.28;;;16.60;88.70;;;20.56;43.16;95536.41;6054589;19;20015;-65
2021/10/27 04:50:20;;;;;;;3.97;3.40;;;16.60;88.90;;;20.55;43.39;95528.56;6053020;19;20759;-64
2021/10/27 04:52:22;;;;;;;3.92;3.53;;;16.50;88.70;;;20.56;43.56;95532.88;6069215;19;20014;-65
2021/10/27 04:54:22;;;;;;;4.18;3.55;;;16.60;88.80;;;20.55;43.05;95534.00;6068949;19;20625;-64
2021/10/27 04:56:23;;;;;;;3.42;3.13;;;16.60;88.90;;;20.55;43.43;95534.00;6064378;19;20737;-65
2021/10/27 04:58:27;;;;;;;4.05;3.65;;;16.60;88.90;;;20.55;43.40;95539.41;6076514;19;20010;-64
2021/10/27 05:00:28;;;;;;;4.35;3.55;;;16.50;88.70;;;20.53;43.24;95537.00;6086895;19;20057;-65
2021/10/27 05:02:28;;;;;;;3.50;3.20;;;16.60;88.80;;;20.53;43.50;95528.06;6076334;19;20014;-64
2021/10/27 05:04:30;;;;;;;8.60;3.72;;;16.50;88.80;;;20.52;43.17;95540.81;6088431;19;20052;-64
2021/10/27 05:06:30;;;;;;;5.47;3.60;;;16.50;88.80;;;20.51;43.43;95530.28;6086298;19;20010;-65
2021/10/27 05:08:33;;;;;;;4.28;3.55;;;16.50;88.70;;;20.49;43.62;95533.31;6084642;19;20017;-65
2021/10/27 05:10:34;;;;;;;3.85;3.55;;;16.50;88.70;;;20.50;43.30;95531.41;6073266;19;20010;-65
2021/10/27 05:12:34;;;;;;;4.38;3.38;;;16.50;88.70;;;20.50;43.60;95534.09;6070539;19;20098;-66
2021/10/27 05:14:38;;;;;;;4.10;3.08;;;16.50;88.60;;;20.50;43.36;95536.81;6068623;19;20018;-65
2021/10/27 05:16:39;;;;;;;3.65;3.22;;;16.50;88.60;;;20.49;43.39;95535.22;6079930;19;20047;-65
2021/10/27 05:18:39;;;;;;;3.00;2.70;;;16.50;88.50;;;20.50;43.53;95547.66;6068894;19;20046;-65
2021/10/27 05:20:41;;;;;;;3.10;2.88;;;16.50;88.50;;;20.49;43.07;95546.84;6077426;19;20010;-65
2021/10/27 05:22:41;;;;;;;3.60;3.28;;;16.50;88.50;;;20.48;43.52;95545.25;6074231;19;20010;-65
2021/10/27 05:24:42;;;;;;;3.22;3.03;;;16.50;88.40;;;20.47;43.26;95546.34;6077170;19;20015;-64
2021/10/27 05:26:43;;;;;;;3.67;3.20;;;16.50;88.40;;;20.48;43.36;95544.44;6075914;19;20034;-66
2021/10/27 05:28:44;;;;;;;2.90;2.70;;;16.50;88.30;;;20.47;43.26;95546.34;6039444;19;20456;-64
2021/10/27 05:30:47;;;;;;;3.05;2.83;;;16.50;88.30;;;20.46;43.17;95550.16;6059945;19;20144;-65
2021/10/27 05:32:48;;;;;;;3.15;2.92;;;16.50;88.30;;;20.47;43.26;95553.66;6066106;19;20010;-65
2021/10/27 05:34:48;;;;;;;2.67;2.47;;;16.50;88.30;;;20.46;43.39;95552.06;6064768;19;20036;-65
2021/10/27 05:36:50;;;;;;;3.15;2.85;;;16.50;88.20;;;20.46;43.07;95552.06;6052687;19;20018;-64
2021/10/27 05:38:50;;;;;;;3.22;2.38;;;16.50;88.30;;;20.46;42.98;95562.91;6028794;19;20018;-64
2021/10/27 05:40:51;;;;;;;4.20;2.63;;;16.50;88.20;;;20.46;43.42;95546.66;6033852;19;23345;-64
2021/10/27 05:42:52;;;;;;;2.85;2.63;;;16.50;88.10;;;20.45;43.17;95562.09;6040475;19;20404;-65
2021/10/27 05:44:53;;;;;;;3.17;2.88;;;16.50;87.90;;;20.44;43.04;95557.78;6058666;19;20029;-65
2021/10/27 05:46:56;;;;;;;2.70;2.50;;;16.50;87.80;;;20.43;43.14;95558.88;6075801;19;20590;-64
2021/10/27 05:49:15;;;;;;;2.58;2.38;;;16.50;87.70;;;20.42;43.13;95562.69;6072907;19;20471;-65
2021/10/27 05:51:24;;;;;;;3.20;3.00;;;16.40;87.40;;;20.42;43.34;95554.56;6039540;19;20140;-65
2021/10/27 05:55:48;;;;;;;3.30;3.00;;;16.50;87.40;;;20.45;43.34;95559.38;6058843;19;20034;-63
2021/10/27 05:57:49;;;;;;;2.92;2.72;;;16.50;87.60;;;20.50;42.84;95561.19;6069985;19;20754;-64
2021/10/27 05:59:51;;;;;;;2.90;2.67;;;16.60;86.60;;;20.51;43.23;95557.38;6056565;19;20960;-64
2021/10/27 06:01:52;;;;;;;2.80;2.55;;;16.60;87.20;;;20.53;43.25;95563.28;6051383;19;20482;-64
2021/10/27 06:03:53;;;;;;;3.00;2.80;;;16.60;87.30;;;20.54;43.01;95565.69;6062818;19;20045;-64
2021/10/27 06:05:54;;;;;;;2.67;2.47;;;16.60;87.20;;;20.55;42.61;95561.09;6069607;19;20148;-65
2021/10/27 06:07:55;;;;;;;3.00;2.72;;;16.60;86.50;;;20.57;42.76;95558.88;6075201;19;20006;-64
2021/10/27 06:09:56;;;;;;;3.35;2.72;;;16.60;86.30;;;20.57;42.48;95564.28;6064478;19;20010;-65
2021/10/27 06:12:01;;;;;;;2.55;2.38;;;16.60;86.10;;;20.55;42.45;95561.09;6071555;19;20049;-64
2021/10/27 06:14:02;;;;;;;3.08;2.88;;;16.60;85.80;;;20.58;42.89;95568.59;6069989;19;20010;-64
2021/10/27 06:16:03;;;;;;;2.92;2.72;;;16.60;85.70;;;20.59;42.61;95564.78;6060440;19;20507;-64
2021/10/27 06:18:04;;;;;;;2.92;2.72;;;16.60;85.70;;;20.58;42.75;95564.00;6055248;19;20087;-65
2021/10/27 06:20:06;;;;;;;3.17;2.88;;;16.60;85.70;;;20.58;42.49;95555.06;6068322;19;20019;-64
2021/10/27 06:22:09;;;;;;;3.22;2.65;;;16.60;85.70;;;20.58;42.65;95561.28;6076363;19;20918;-64
2021/10/27 06:24:10;;;;;;;2.97;2.78;;;16.60;85.60;;;20.57;42.45;95564.28;6079794;19;20823;-64
2021/10/27 06:26:12;;;;;;;3.50;3.20;;;16.60;85.50;;;20.57;42.59;95564.28;6087284;19;20014;-64
2021/10/27 06:28:16;;;;;;;3.10;2.90;;;16.60;85.30;;;20.56;42.72;95563.50;6061508;19;20424;-65
2021/10/27 06:30:22;;;;;;;2.88;2.67;;;16.60;85.20;;;20.55;42.80;95559.16;6066008;19;20070;-64
2021/10/27 06:34:34;;;;;;;2.92;2.72;;;16.60;84.90;;;20.52;42.20;95565.19;6074854;19;20049;-64
2021/10/27 06:46:24;;;;;;;3.65;3.35;;;16.60;84.40;;;20.45;42.48;95569.41;6083901;19;20019;-64
2021/10/27 06:48:21;;;;;;;3.20;2.70;;;16.60;84.40;;;20.44;42.76;95565.91;6066121;19;20010;-64
2021/10/27 06:50:22;;;;;;;2.78;2.58;;;16.60;84.40;;;20.45;42.80;95572.13;6078849;19;20094;-64
2021/10/27 06:52:23;;;;;;;3.28;2.92;;;16.60;84.40;;;20.44;42.51;95570.53;6077362;19;20014;-64
2021/10/27 06:54:24;;;;;;;3.53;3.22;;;16.60;84.50;;;20.44;42.71;95571.31;6082824;19;20360;-64
2021/10/27 06:56:25;;;;;;;3.03;2.83;;;16.60;84.50;;;20.45;42.65;95572.13;6084282;19;20061;-64
2021/10/27 06:58:26;;;;;;;3.03;2.83;;;16.60;84.40;;;20.44;42.29;95571.31;6061521;19;20023;-64
2021/10/27 07:02:52;;;;;;;3.50;3.20;;;16.60;84.40;;;20.44;42.71;95578.66;6069283;19;20014;-67
2021/10/27 07:15:54;;;;;;;3.45;3.15;;;16.50;84.20;;;20.38;42.62;95577.88;6082561;19;20021;-66
2021/10/27 07:17:56;;;;;;;3.17;2.88;;;16.50;84.30;;;20.38;42.39;95586.00;6079592;19;20489;-65
2021/10/27 07:19:57;;;;;;;3.50;3.20;;;16.50;84.40;;;20.39;42.27;95579.50;6076867;19;20010;-66
2021/10/27 07:22:01;;;;;;;2.83;2.63;;;16.50;84.40;;;20.40;42.32;95580.31;6081543;19;20089;-65
2021/10/27 07:24:02;;;;;;;3.50;3.20;;;16.50;84.40;;;20.40;42.44;95573.00;6080093;19;20010;-65
2021/10/27 07:26:03;;;;;;;3.42;3.22;;;16.50;84.50;;;20.41;42.51;95577.31;6080695;19;20014;-65
2021/10/27 07:28:04;;;;;;;2.83;2.63;;;16.50;84.50;;;20.41;42.46;95574.59;6083285;19;20022;-65
2021/10/27 07:30:06;;;;;;;3.00;2.80;;;16.50;84.40;;;20.43;42.51;95585.16;6078067;19;20045;-66
2021/10/27 07:32:09;;;;;;;3.42;3.15;;;16.50;84.50;;;20.43;42.73;95577.03;6073861;19;20018;-65
2021/10/27 07:34:12;;;;;;;3.08;2.88;;;16.50;84.50;;;20.44;42.73;95573.22;6079149;19;20019;-65
2021/10/27 07:40:41;;;;;;;2.70;2.50;;;16.60;84.70;;;20.47;42.66;95572.63;6078723;19;20010;-65
2021/10/27 07:42:42;;;;;;;2.58;2.38;;;16.60;84.60;;;20.48;42.48;95572.31;6080212;19;20026;-65
2021/10/27 07:44:44;;;;;;;2.60;2.40;;;16.60;84.60;;;20.50;42.51;95580.16;6071070;19;20785;-65
2021/10/27 07:46:46;;;;;;;2.72;2.53;;;16.60;84.70;;;20.50;42.28;95570.13;6077569;19;20019;-65
2021/10/27 07:48:47;;;;;;;3.95;2.72;;;16.60;84.70;;;20.51;42.58;95569.00;6080367;19;20102;-65
2021/10/27 07:50:48;;;;;;;4.03;2.85;;;16.60;84.90;;;20.52;42.79;95576.03;6075847;19;20003;-65
2021/10/27 07:52:52;;;;;;;2.88;2.67;;;16.60;84.80;;;20.53;42.23;95569.50;6080459;19;21153;-65
2021/10/27 07:54:54;;;;;;;2.45;2.25;;;16.60;84.80;;;20.53;42.72;95572.22;6080435;19;20016;-65
2021/10/27 07:56:55;;;;;;;3.00;2.80;;;16.60;84.90;;;20.56;42.49;95576.22;6076210;19;21167;-65
2021/10/27 07:58:57;;;;;;;2.67;2.47;;;16.60;84.90;;;20.57;42.72;95569.72;6079234;19;20243;-65
2021/10/27 08:01:00;;;;;;;3.22;3.03;;;16.60;84.90;;;20.58;42.44;95574.03;6076049;19;20018;-63
2021/10/27 08:03:02;;;;;;;2.90;2.50;;;16.60;85.00;;;20.58;42.68;95565.91;6074996;19;20014;-62
2021/10/27 08:05:04;;;;;;;2.47;2.28;;;16.60;85.00;;;20.58;42.55;95561.28;6085030;19;20077;-64
2021/10/27 08:07:05;;;;;;;2.88;2.67;;;16.60;85.10;;;20.59;42.31;95565.59;6087037;19;20018;-65
2021/10/27 08:09:06;;;;;;;3.10;2.90;;;16.60;85.10;;;20.60;42.50;95559.06;6081288;19;20081;-67
2021/10/27 08:11:08;;;;;;;2.58;2.38;;;16.60;85.20;;;20.60;42.23;95553.66;6065093;19;20113;-65
2021/10/27 08:13:10;;;;;;;2.50;2.30;;;16.70;85.30;;;20.61;42.41;95559.88;6098471;19;20473;-65
2021/10/27 08:15:12;;;;;;;2.20;2.10;;;16.60;86.00;;;20.61;42.34;95551.75;6101430;19;20018;-66
2021/10/27 08:17:14;;;;;;;2.92;2.72;;;16.60;85.20;;;20.62;42.30;95561.47;6097520;19;21313;-67
2021/10/27 08:19:14;;;;;;;2.53;2.28;;;16.60;85.30;;;20.62;42.22;95553.34;6084652;19;20019;-64
2021/10/27 08:21:15;;;;;;;2.22;2.10;;;16.60;85.20;;;20.62;42.39;95550.63;6082478;19;20024;-64
2021/10/27 08:23:18;;;;;;;2.90;2.70;;;16.60;85.20;;;20.61;42.66;95549.03;6083850;19;20035;-64
2021/10/27 08:27:28;;;;;;;1.98;1.88;;;16.60;85.20;;;20.61;42.41;95549.84;6081994;19;20038;-64
2021/10/27 08:29:30;;;;;;;2.20;2.00;;;16.60;85.90;;;20.62;42.68;95553.34;6071967;19;20032;-63
2021/10/27 08:35:36;;;;;;;3.08;2.88;;;16.60;85.20;;;20.62;42.40;95547.94;6087398;19;20048;-63
2021/10/27 08:37:37;;;;;;;6.90;4.68;;;16.70;85.40;;;20.63;42.26;95538.69;6083915;19;20605;-63
2021/10/27 08:39:38;;;;;;;18.50;10.27;;;16.70;85.40;;;20.62;42.50;95542.50;6088207;19;20007;-62
2021/10/27 08:41:39;;;;;;;38.22;16.88;;;16.60;85.30;;;20.62;42.58;95539.81;6081955;19;20017;-63
2021/10/27 08:43:40;;;;;;;84.47;33.17;;;16.60;85.30;;;20.63;42.75;95538.69;6082409;19;20018;-63
2021/10/27 08:45:42;;;;;;;100.63;39.70;;;16.70;85.40;;;20.63;42.60;95538.69;6092937;19;20015;-63
2021/10/27 08:47:48;;;;;;;117.57;45.23;;;16.70;85.40;;;20.63;42.53;95538.69;6084026;19;20010;-64
2021/10/27 08:49:49;;;;;;;140.10;53.55;;;16.70;85.50;;;20.63;42.62;95536.78;6092211;19;20074;-62
2021/10/27 08:51:50;;;;;;;145.90;58.40;;;16.70;85.50;;;20.64;42.62;95537.59;6088664;19;20010;-63
2021/10/27 08:53:52;;;;;;;150.98;58.58;;;16.70;85.50;;;20.64;42.58;95538.38;6082500;19;20074;-64
2021/10/27 08:55:54;;;;;;;154.48;60.13;;;16.70;85.60;;;20.65;42.77;95541.91;6086650;19;20010;-63
2021/10/27 08:57:57;;;;;;;156.82;63.33;;;16.70;85.50;;;20.65;42.95;95534.56;6087378;19;20010;-62
2021/10/27 09:05:27;;;;;;;166.88;68.50;;;16.70;85.50;;;20.66;42.34;95532.66;6085073;19;20021;-62
2021/10/27 09:07:18;;;;;;;169.38;66.53;;;16.70;85.40;;;20.65;42.29;95529.16;6087900;19;20479;-62
2021/10/27 09:16:46;;;;;;;167.50;65.97;;;16.80;85.50;;;20.67;42.63;95518.03;6091044;19;20030;-63
2021/10/27 09:56:53;;;;;;;113.38;46.65;;;17.00;84.70;;;20.97;42.39;95503.00;6084541;19;20030;-64
2021/10/27 10:04:07;;;;;;;99.70;41.67;;;17.00;84.70;;;21.02;42.27;95502.09;6078370;19;20014;-62